createdAt,value
2018-01-31T01:52:23.009Z,16.60
2018-01-31T01:54:50.482Z,16.67
2018-01-31T01:57:17.972Z,12.40
2018-01-31T01:59:45.432Z,19.85
2018-01-31T02:02:20.502Z,13.90
2018-01-31T02:04:47.932Z,15.03
2018-01-31T02:07:15.427Z,14.90
2018-01-31T02:09:43.117Z,13.60
2018-01-31T02:12:10.623Z,13.27
2018-01-31T02:14:40.504Z,12.87
2018-01-31T02:17:08.168Z,14.53
2018-01-31T02:19:36.054Z,16.00
2018-01-31T02:22:04.316Z,11.88
2018-01-31T02:24:31.833Z,13.30
2018-01-31T02:26:59.394Z,14.13
2018-01-31T02:29:26.841Z,17.53
2018-01-31T02:31:54.285Z,11.18
2018-01-31T02:34:21.743Z,15.10
2018-01-31T02:36:49.176Z,13.95
2018-01-31T02:42:20.892Z,16.75
2018-01-31T02:44:49.678Z,16.83
2018-01-31T02:47:17.160Z,14.23
2018-01-31T02:49:44.645Z,14.20
2018-01-31T02:52:12.153Z,15.52
2018-01-31T02:54:39.592Z,16.03
2018-01-31T02:57:07.759Z,11.05
2018-01-31T02:59:35.192Z,14.90
2018-01-31T03:02:02.656Z,12.77
2018-01-31T03:04:30.214Z,14.27
2018-01-31T03:06:58.477Z,12.90
2018-01-31T03:09:25.933Z,10.30
2018-01-31T03:11:53.396Z,11.20
2018-01-31T03:14:21.949Z,9.77
2018-01-31T03:16:49.411Z,13.60
2018-01-31T03:19:21.597Z,8.20
2018-01-31T03:21:49.087Z,11.55
2018-01-31T03:24:16.553Z,9.25
2018-01-31T03:26:43.989Z,10.90
2018-01-31T03:29:12.746Z,11.17
2018-01-31T03:31:41.115Z,9.60
2018-01-31T03:34:12.176Z,10.97
2018-01-31T03:36:39.648Z,8.02
2018-01-31T03:39:07.136Z,11.40
2018-01-31T03:41:34.580Z,8.63
2018-01-31T03:44:02.239Z,8.03
2018-01-31T03:46:31.388Z,11.43
2018-01-31T03:49:02.125Z,8.07
2018-01-31T03:51:29.572Z,9.77
2018-01-31T03:53:57.033Z,6.83
2018-01-31T03:56:25.390Z,6.30
2018-01-31T03:58:52.871Z,7.60
2018-01-31T04:01:20.340Z,9.83
2018-01-31T04:03:51.308Z,11.87
2018-01-31T04:06:20.484Z,7.17
2018-01-31T04:08:48.004Z,7.12
2018-01-31T04:11:15.483Z,6.82
2018-01-31T04:13:42.928Z,12.53
2018-01-31T04:16:10.407Z,7.87
2018-01-31T04:18:37.867Z,4.20
2018-01-31T04:21:05.366Z,5.17
2018-01-31T04:23:34.504Z,4.37
2018-01-31T04:26:01.940Z,5.07
2018-01-31T04:28:29.438Z,4.40
2018-01-31T04:30:56.945Z,4.53
2018-01-31T04:33:24.400Z,6.80
2018-01-31T04:35:52.005Z,4.87
2018-01-31T04:38:19.468Z,7.90
2018-01-31T04:40:47.829Z,7.55
2018-01-31T04:43:15.336Z,5.93
2018-01-31T04:45:42.991Z,4.40
2018-01-31T04:48:11.198Z,3.92
2018-01-31T04:50:38.676Z,8.37
2018-01-31T04:53:06.112Z,2.78
2018-01-31T04:55:33.586Z,5.65
2018-01-31T04:58:01.952Z,5.10
2018-01-31T05:00:29.434Z,3.13
2018-01-31T05:02:57.704Z,4.03
2018-01-31T05:05:35.115Z,2.50
2018-01-31T05:08:03.199Z,8.63
2018-01-31T05:10:30.656Z,5.23
2018-01-31T05:12:58.828Z,3.12
2018-01-31T05:15:27.964Z,6.50
2018-01-31T05:17:55.408Z,15.90
2018-01-31T05:20:27.510Z,2.83
2018-01-31T05:22:54.957Z,6.40
2018-01-31T05:25:22.786Z,4.22
2018-01-31T05:27:50.235Z,6.17
2018-01-31T05:30:17.696Z,5.00
2018-01-31T05:32:45.197Z,4.93
2018-01-31T05:35:12.645Z,5.00
2018-01-31T05:37:40.112Z,5.72
2018-01-31T05:40:07.837Z,16.67
2018-01-31T05:42:36.229Z,6.83
2018-01-31T05:45:03.697Z,9.00
2018-01-31T05:47:31.164Z,7.53
2018-01-31T05:49:58.608Z,20.40
2018-01-31T05:52:26.140Z,6.60
2018-01-31T05:54:54.352Z,4.80
2018-01-31T05:57:21.795Z,8.10
2018-01-31T05:59:50.950Z,8.30
2018-01-31T06:02:18.516Z,5.13
2018-01-31T06:04:45.976Z,5.37
2018-01-31T06:07:13.451Z,11.07
2018-01-31T06:09:40.900Z,6.07
2018-01-31T06:12:10.036Z,5.30
2018-01-31T06:14:37.496Z,9.97
2018-01-31T06:17:04.947Z,7.18
2018-01-31T06:19:32.416Z,4.05
2018-01-31T06:22:04.423Z,5.10
2018-01-31T06:24:32.764Z,4.57
2018-01-31T06:27:00.228Z,4.17
2018-01-31T06:29:27.700Z,3.40
2018-01-31T06:31:55.156Z,3.47
2018-01-31T06:34:22.626Z,3.37
2018-01-31T06:36:54.092Z,8.03
2018-01-31T06:39:23.334Z,6.50
2018-01-31T06:41:50.800Z,4.17
2018-01-31T06:44:19.044Z,5.53
2018-01-31T06:46:46.567Z,2.70
2018-01-31T06:49:14.056Z,5.50
2018-01-31T06:51:41.773Z,5.57
2018-01-31T06:54:09.282Z,3.73
2018-01-31T06:56:37.680Z,8.52
2018-01-31T06:59:05.116Z,4.50
2018-01-31T07:01:32.609Z,4.00
2018-01-31T07:04:00.054Z,4.30
2018-01-31T07:06:27.540Z,4.13
2018-01-31T07:08:55.012Z,5.23
2018-01-31T07:11:22.452Z,5.03
2018-01-31T07:13:49.909Z,6.80
2018-01-31T07:16:17.358Z,10.63
2018-01-31T07:18:44.829Z,8.47
2018-01-31T07:21:12.274Z,5.50
2018-01-31T07:23:40.676Z,7.40
2018-01-31T07:26:08.121Z,3.47
2018-01-31T07:28:35.610Z,4.10
2018-01-31T07:31:03.051Z,4.47
2018-01-31T07:33:30.500Z,8.55
2018-01-31T07:35:58.239Z,4.97
2018-01-31T07:38:25.711Z,10.77
2018-01-31T07:40:54.101Z,3.33
2018-01-31T07:43:21.544Z,4.45
2018-01-31T07:45:49.089Z,5.70
2018-01-31T07:48:16.561Z,5.37
2018-01-31T07:50:44.142Z,2.53
2018-01-31T07:53:18.708Z,5.43
2018-01-31T07:55:46.172Z,4.55
2018-01-31T07:58:14.184Z,2.40
2018-01-31T08:00:41.744Z,2.73
2018-01-31T08:03:09.271Z,7.22
2018-01-31T08:05:36.692Z,8.00
2018-01-31T08:08:07.922Z,5.03
2018-01-31T08:10:35.420Z,1.50
2018-01-31T08:13:03.360Z,2.55
2018-01-31T08:15:30.837Z,1.98
2018-01-31T08:17:58.312Z,3.40
2018-01-31T08:20:25.757Z,2.50
2018-01-31T08:22:53.248Z,4.00
2018-01-31T08:25:20.688Z,10.10
2018-01-31T08:27:48.207Z,3.50
2018-01-31T08:30:16.590Z,3.60
2018-01-31T08:32:44.020Z,4.90
2018-01-31T08:35:12.660Z,3.70
2018-01-31T08:37:40.124Z,3.80
2018-01-31T08:40:07.630Z,4.95
2018-01-31T08:42:36.956Z,2.25
2018-01-31T08:45:04.416Z,2.30
2018-01-31T08:47:31.889Z,2.40
2018-01-31T08:49:59.365Z,2.97
2018-01-31T08:52:27.028Z,1.60
2018-01-31T08:54:54.461Z,2.00
2018-01-31T08:57:21.920Z,2.53
2018-01-31T08:59:49.864Z,2.20
2018-01-31T09:02:17.315Z,2.10
2018-01-31T09:04:45.049Z,2.85
2018-01-31T09:07:13.259Z,2.12
2018-01-31T09:09:50.813Z,2.73
2018-01-31T09:12:18.263Z,2.37
2018-01-31T09:14:46.444Z,4.43
2018-01-31T09:17:14.679Z,3.90
2018-01-31T09:19:42.141Z,3.00
2018-01-31T09:22:10.459Z,2.78
2018-01-31T09:24:41.926Z,5.37
2018-01-31T09:27:09.416Z,4.57
2018-01-31T09:29:36.878Z,2.67
2018-01-31T09:32:04.319Z,3.60
2018-01-31T09:34:31.796Z,4.80
2018-01-31T09:37:00.793Z,2.25
2018-01-31T09:39:28.568Z,2.90
2018-01-31T09:41:56.069Z,5.90
2018-01-31T09:44:23.525Z,13.40
2018-01-31T09:46:51.253Z,6.30
2018-01-31T09:49:19.634Z,1.70
2018-01-31T09:51:47.088Z,1.67
2018-01-31T09:54:14.532Z,1.60
2018-01-31T09:56:42.158Z,2.37
2018-01-31T09:59:09.647Z,2.20
2018-01-31T10:01:37.167Z,5.33
2018-01-31T10:04:04.620Z,11.07
2018-01-31T10:06:32.964Z,1.83
2018-01-31T10:09:00.483Z,1.83
2018-01-31T10:11:28.018Z,1.83
2018-01-31T10:13:55.640Z,3.40
2018-01-31T10:16:23.093Z,1.30
2018-01-31T10:18:50.562Z,3.75
2018-01-31T10:21:18.061Z,6.57
2018-01-31T10:23:45.516Z,2.33
2018-01-31T10:26:12.992Z,2.33
2018-01-31T10:28:40.491Z,4.78
2018-01-31T10:31:07.952Z,8.13
2018-01-31T10:33:36.221Z,1.87
2018-01-31T10:36:04.479Z,4.57
2018-01-31T10:38:32.040Z,4.40
2018-01-31T10:41:05.741Z,1.87
2018-01-31T10:43:33.188Z,2.87
2018-01-31T10:46:01.180Z,3.60
2018-01-31T10:48:28.740Z,8.23
2018-01-31T10:50:56.193Z,2.03
2018-01-31T10:53:23.857Z,1.70
2018-01-31T10:58:23.335Z,1.30
2018-01-31T11:00:51.435Z,4.85
2018-01-31T11:03:18.352Z,1.80
2018-01-31T11:05:45.860Z,4.10
2018-01-31T11:08:13.338Z,1.62
2018-01-31T11:10:40.803Z,2.45
2018-01-31T11:13:11.809Z,1.83
2018-01-31T11:15:40.188Z,4.37
2018-01-31T11:18:07.652Z,2.33
2018-01-31T11:20:35.117Z,2.50
2018-01-31T11:23:02.617Z,1.92
2018-01-31T11:25:30.070Z,3.17
2018-01-31T11:27:57.525Z,2.12
2018-01-31T11:30:25.022Z,3.05
2018-01-31T11:32:52.491Z,3.20
2018-01-31T11:35:19.964Z,3.27
2018-01-31T11:37:47.456Z,2.00
2018-01-31T11:40:14.920Z,2.87
2018-01-31T11:42:46.704Z,2.55
2018-01-31T11:45:14.173Z,2.73
2018-01-31T11:47:41.693Z,1.60
2018-01-31T11:50:09.144Z,2.30
2018-01-31T11:52:36.845Z,1.77
2018-01-31T11:55:04.390Z,2.08
2018-01-31T11:57:32.312Z,4.62
2018-01-31T11:59:59.788Z,3.87
2018-01-31T12:02:27.243Z,2.33
2018-01-31T12:04:54.769Z,10.03
2018-01-31T12:07:22.988Z,5.03
2018-01-31T12:09:50.446Z,1.85
2018-01-31T12:12:33.906Z,2.60
2018-01-31T12:15:13.157Z,3.07
2018-01-31T12:17:40.628Z,2.80
2018-01-31T12:20:20.583Z,3.03
2018-01-31T12:22:59.693Z,1.90
2018-01-31T12:25:38.963Z,4.33
2018-01-31T12:28:18.069Z,3.40
2018-01-31T12:30:58.079Z,3.93
2018-01-31T12:33:37.291Z,8.73
2018-01-31T12:36:16.627Z,3.27
2018-01-31T12:38:55.765Z,4.83
2018-01-31T12:41:22.752Z,2.80
2018-01-31T12:43:53.453Z,3.80
2018-01-31T12:46:32.776Z,2.60
2018-01-31T12:49:07.576Z,9.33
2018-01-31T12:51:48.946Z,2.90
2018-01-31T12:54:28.853Z,3.72
2018-01-31T12:57:08.384Z,4.57
2018-01-31T12:59:47.655Z,11.85
2018-01-31T13:02:23.006Z,5.57
2018-01-31T13:05:03.091Z,7.50
2018-01-31T13:07:42.385Z,9.87
2018-01-31T13:10:22.381Z,6.62
2018-01-31T13:13:06.137Z,5.10
2018-01-31T13:15:46.269Z,5.35
2018-01-31T13:18:25.589Z,4.70
2018-01-31T13:21:04.808Z,6.07
2018-01-31T13:23:32.264Z,6.60
2018-01-31T13:29:23.757Z,5.70
2018-01-31T13:32:03.137Z,4.90
2018-01-31T13:34:42.451Z,5.60
2018-01-31T13:37:27.477Z,6.60
2018-01-31T13:40:03.843Z,7.12
2018-01-31T13:42:45.612Z,8.17
2018-01-31T13:45:25.024Z,7.07
2018-01-31T13:48:04.365Z,4.80
2018-01-31T13:50:44.444Z,8.23
2018-01-31T13:53:23.701Z,3.90
2018-01-31T13:56:03.090Z,11.13
2018-01-31T14:01:51.557Z,6.93
2018-01-31T14:04:30.725Z,12.53
2018-01-31T14:07:10.104Z,10.23
2018-01-31T14:09:49.305Z,8.13
2018-01-31T14:12:28.592Z,8.38
2018-01-31T14:18:08.762Z,9.98
2018-01-31T14:20:47.999Z,14.87
2018-01-31T14:23:27.356Z,10.40
2018-01-31T14:26:07.328Z,10.37
2018-01-31T14:28:47.845Z,8.50
2018-01-31T14:31:27.038Z,15.50
2018-01-31T14:34:06.870Z,8.55
2018-01-31T14:36:33.824Z,14.43
2018-01-31T14:39:01.087Z,11.95
2018-01-31T14:41:28.100Z,7.60
2018-01-31T14:43:55.856Z,9.93
2018-01-31T14:46:29.635Z,18.90
2018-01-31T14:48:56.587Z,11.77
2018-01-31T14:51:23.573Z,15.47
2018-01-31T14:53:50.780Z,10.80
2018-01-31T14:56:17.769Z,11.17
2018-01-31T14:58:44.772Z,10.73
2018-01-31T15:01:15.358Z,10.82
2018-01-31T15:03:42.272Z,11.03
2018-01-31T15:06:10.070Z,12.17
2018-01-31T15:08:37.064Z,12.02
2018-01-31T15:11:04.065Z,12.43
2018-01-31T15:13:31.032Z,10.90
2018-01-31T15:15:57.996Z,17.43
2018-01-31T15:18:31.881Z,15.83
2018-01-31T15:20:58.895Z,14.37
2018-01-31T15:23:25.893Z,13.60
2018-01-31T15:25:52.864Z,11.37
2018-01-31T15:28:19.834Z,10.17
2018-01-31T15:30:50.305Z,13.27
2018-01-31T15:33:17.492Z,12.40
2018-01-31T15:35:44.590Z,10.00
2018-01-31T15:38:11.611Z,14.45
2018-01-31T15:40:38.905Z,9.10
2018-01-31T15:43:06.105Z,10.80
2018-01-31T15:45:37.536Z,8.53
2018-01-31T15:48:04.487Z,11.20
2018-01-31T15:50:32.196Z,9.48
2018-01-31T15:52:59.272Z,9.20
2018-01-31T15:55:26.236Z,12.47
2018-01-31T15:57:53.967Z,12.40
2018-01-31T16:00:20.979Z,11.10
2018-01-31T16:02:52.514Z,10.83
2018-01-31T16:05:19.472Z,10.03
2018-01-31T16:07:46.745Z,8.97
2018-01-31T16:10:13.748Z,9.50
2018-01-31T16:12:41.488Z,11.80
2018-01-31T16:15:08.444Z,10.88
2018-01-31T16:17:40.665Z,8.93
2018-01-31T16:20:20.062Z,9.77
2018-01-31T16:22:47.662Z,9.02
2018-01-31T16:25:15.097Z,7.97
2018-01-31T16:27:54.376Z,9.17
2018-01-31T16:30:22.567Z,15.00
2018-01-31T16:33:01.952Z,7.30
2018-01-31T16:35:31.554Z,11.24
2018-01-31T16:37:59.936Z,13.05
2018-01-31T16:40:27.391Z,10.68
2018-01-31T16:42:54.872Z,10.93
2018-01-31T16:45:22.317Z,8.37
2018-01-31T16:47:53.448Z,8.30
2018-01-31T16:50:20.887Z,13.73
2018-01-31T16:52:49.336Z,11.25
2018-01-31T16:55:16.898Z,10.55
2018-01-31T16:57:44.335Z,8.60
2018-01-31T17:00:12.581Z,11.20
2018-01-31T17:02:43.038Z,12.07
2018-01-31T17:05:10.481Z,11.20
2018-01-31T17:07:39.656Z,16.55
2018-01-31T17:10:07.090Z,11.88
2018-01-31T17:12:35.330Z,12.40
2018-01-31T17:15:02.817Z,10.73
2018-01-31T17:17:33.864Z,9.40
2018-01-31T17:20:01.608Z,10.05
2018-01-31T17:22:29.142Z,13.43
2018-01-31T17:24:56.575Z,17.73
2018-01-31T17:27:24.190Z,16.60
2018-01-31T17:29:54.113Z,16.60
2018-01-31T17:32:26.305Z,13.33
2018-01-31T17:34:53.754Z,9.52
2018-01-31T17:37:21.215Z,11.07
2018-01-31T17:39:48.716Z,11.20
2018-01-31T17:42:16.201Z,13.38
2018-01-31T17:44:44.482Z,7.75
2018-01-31T17:47:12.705Z,10.73
2018-01-31T17:49:40.161Z,11.20
2018-01-31T17:52:07.689Z,13.57
2018-01-31T17:54:35.188Z,11.13
2018-01-31T17:57:02.724Z,10.90
2018-01-31T17:59:30.175Z,17.20
2018-01-31T18:01:57.615Z,11.87
2018-01-31T18:04:25.087Z,15.15
2018-01-31T18:06:52.554Z,16.83
2018-01-31T18:09:20.076Z,13.10
2018-01-31T18:11:47.522Z,16.37
2018-01-31T18:14:16.836Z,11.10
2018-01-31T18:16:44.292Z,10.30
2018-01-31T18:19:11.740Z,11.90
2018-01-31T18:21:39.952Z,11.30
2018-01-31T18:24:07.784Z,15.47
2018-01-31T18:26:35.313Z,13.60
2018-01-31T18:29:02.772Z,15.73
2018-01-31T18:31:30.259Z,11.98
2018-01-31T18:34:01.080Z,12.40
2018-01-31T18:36:28.604Z,16.58
2018-01-31T18:38:56.058Z,13.43
2018-01-31T18:41:24.106Z,14.57
2018-01-31T18:43:51.538Z,15.52
2018-01-31T18:46:18.993Z,12.30
2018-01-31T18:48:46.785Z,13.20
2018-01-31T18:51:14.337Z,14.77
2018-01-31T18:53:43.518Z,12.00
2018-01-31T18:56:10.964Z,13.20
2018-01-31T18:58:38.436Z,11.20
2018-01-31T19:01:05.928Z,16.73
2018-01-31T19:03:33.546Z,12.03
2018-01-31T19:06:01.092Z,12.33
2018-01-31T19:08:28.536Z,14.05
2018-01-31T19:10:56.057Z,14.85
2018-01-31T19:13:23.536Z,9.70
2018-01-31T19:15:51.549Z,11.98
2018-01-31T19:18:19.012Z,12.97
2018-01-31T19:20:46.527Z,10.93
2018-01-31T19:23:13.968Z,11.02
2018-01-31T19:25:41.470Z,9.95
2018-01-31T19:28:10.604Z,11.90
2018-01-31T19:30:38.111Z,13.77
2018-01-31T19:33:06.131Z,13.30
2018-01-31T19:35:34.594Z,12.43
2018-01-31T19:38:02.025Z,13.85
2018-01-31T19:40:30.193Z,14.74
2018-01-31T19:42:57.741Z,16.13
2018-01-31T19:45:25.396Z,9.90
2018-01-31T19:47:52.858Z,8.73
2018-01-31T19:50:20.360Z,7.10
2018-01-31T19:52:49.607Z,11.20
2018-01-31T19:55:17.294Z,7.97
2018-01-31T19:57:44.772Z,8.25
2018-01-31T20:00:12.215Z,6.63
2018-01-31T20:02:39.735Z,7.83
2018-01-31T20:05:07.301Z,7.53
2018-01-31T20:07:34.770Z,5.17
2018-01-31T20:10:03.019Z,5.55
2018-01-31T20:12:30.674Z,7.97
2018-01-31T20:14:58.126Z,4.80
2018-01-31T20:17:25.662Z,6.30
2018-01-31T20:20:03.592Z,6.93
2018-01-31T20:22:31.090Z,3.30
2018-01-31T20:24:58.623Z,10.63
2018-01-31T20:27:26.101Z,3.33
2018-01-31T20:29:53.976Z,5.57
2018-01-31T20:32:21.432Z,4.53
2018-01-31T20:34:48.888Z,3.97
2018-01-31T20:37:16.454Z,4.23
2018-01-31T20:39:43.964Z,6.25
2018-01-31T20:42:12.204Z,5.37
2018-01-31T20:44:39.874Z,3.73
2018-01-31T20:47:07.383Z,3.07
2018-01-31T20:49:34.904Z,3.65
2018-01-31T20:52:02.399Z,4.63
2018-01-31T20:54:29.868Z,3.70
2018-01-31T20:56:57.349Z,5.63
2018-01-31T20:59:26.277Z,2.40
2018-01-31T21:01:53.771Z,2.93
2018-01-31T21:04:21.464Z,3.37
2018-01-31T21:06:49.043Z,2.87
2018-01-31T21:09:17.752Z,2.60
2018-01-31T21:11:45.238Z,4.68
2018-01-31T21:14:12.709Z,5.30
2018-01-31T21:16:40.836Z,3.53
2018-01-31T21:19:08.315Z,3.00
2018-01-31T21:21:38.840Z,4.80
2018-01-31T21:24:06.329Z,2.80
2018-01-31T21:26:34.947Z,4.30
2018-01-31T21:29:02.702Z,9.73
2018-01-31T21:31:30.259Z,8.88
2018-01-31T21:33:57.782Z,3.93
2018-01-31T21:36:28.656Z,1.92
2018-01-31T21:39:00.021Z,4.75
2018-01-31T21:41:27.732Z,5.20
2018-01-31T21:43:55.189Z,2.50
2018-01-31T21:46:22.742Z,4.03
2018-01-31T21:48:51.025Z,2.60
2018-01-31T21:51:19.178Z,3.67
2018-01-31T21:53:47.046Z,2.87
2018-01-31T21:56:16.777Z,2.95
2018-01-31T21:58:44.503Z,2.57
2018-01-31T22:01:11.954Z,4.03
2018-01-31T22:03:39.462Z,4.93
2018-01-31T22:06:09.392Z,2.58
2018-01-31T22:08:40.529Z,4.10
2018-01-31T22:11:08.917Z,3.17
2018-01-31T22:13:39.381Z,5.60
2018-01-31T22:16:06.884Z,2.80
2018-01-31T22:18:34.364Z,3.53
2018-01-31T22:21:01.916Z,1.75
2018-01-31T22:23:33.981Z,3.07
2018-01-31T22:26:02.228Z,1.70
2018-01-31T22:28:30.083Z,1.47
2018-01-31T22:30:57.572Z,1.47
2018-01-31T22:33:25.008Z,1.30
2018-01-31T22:35:52.511Z,2.00
2018-01-31T22:38:25.276Z,1.77
2018-01-31T22:40:54.437Z,2.83
2018-01-31T22:43:21.916Z,1.60
2018-01-31T22:45:49.360Z,1.77
2018-01-31T22:48:16.837Z,1.67
2018-01-31T22:50:44.372Z,1.03
2018-01-31T22:53:15.060Z,2.17
2018-01-31T22:55:42.576Z,2.00
2018-01-31T22:58:10.160Z,1.70
2018-01-31T23:00:38.892Z,0.90
2018-01-31T23:03:06.394Z,6.50
2018-01-31T23:05:33.840Z,2.53
2018-01-31T23:08:01.317Z,3.37
2018-01-31T23:10:28.801Z,1.93
2018-01-31T23:13:02.840Z,1.93
2018-01-31T23:15:30.320Z,2.00
2018-01-31T23:18:03.513Z,1.10
2018-01-31T23:20:30.987Z,1.47
2018-01-31T23:22:59.201Z,1.90
2018-01-31T23:25:26.656Z,1.37
2018-01-31T23:27:54.136Z,1.23
2018-01-31T23:30:21.603Z,1.10
2018-01-31T23:32:49.077Z,1.12
2018-01-31T23:35:16.526Z,1.40
2018-01-31T23:37:44.070Z,1.00
2018-01-31T23:40:12.124Z,1.85
2018-01-31T23:42:39.596Z,1.00
2018-01-31T23:45:07.078Z,1.13
2018-01-31T23:47:34.524Z,0.90
2018-01-31T23:50:02.153Z,0.80
2018-01-31T23:52:30.404Z,0.93
2018-01-31T23:54:58.636Z,1.17
2018-01-31T23:57:26.105Z,0.80
2018-01-31T23:59:53.568Z,0.90
